sensor_id;sensor_type;location;lat;lon;timestamp;temperature;humidity
59162;DHT22;44942;48.936;8.260;2023-04-25T00:02:51;21.60;53.70
59162;DHT22;44942;48.936;8.260;2023-04-25T00:07:52;21.60;53.80
59162;DHT22;44942;48.936;8.260;2023-04-25T00:12:52;21.60;53.90
59162;DHT22;44942;48.936;8.260;2023-04-25T00:17:53;21.60;54.00
59162;DHT22;44942;48.936;8.260;2023-04-25T00:22:54;21.60;54.00
59162;DHT22;44942;48.936;8.260;2023-04-25T00:27:55;21.60;54.20
59162;DHT22;44942;48.936;8.260;2023-04-25T00:32:55;21.60;54.30
59162;DHT22;44942;48.936;8.260;2023-04-25T00:37:56;21.60;54.30
59162;DHT22;44942;48.936;8.260;2023-04-25T00:42:56;21.60;54.50
59162;DHT22;44942;48.936;8.260;2023-04-25T00:47:57;21.60;54.50
59162;DHT22;44942;48.936;8.260;2023-04-25T00:52:58;21.60;54.60
59162;DHT22;44942;48.936;8.260;2023-04-25T00:57:58;21.60;54.60
59162;DHT22;44942;48.936;8.260;2023-04-25T01:03:00;21.60;54.60
59162;DHT22;44942;48.936;8.260;2023-04-25T01:08:00;21.70;54.60
59162;DHT22;44942;48.936;8.260;2023-04-25T01:13:01;21.60;54.60
59162;DHT22;44942;48.936;8.260;2023-04-25T01:18:03;21.60;54.60
59162;DHT22;44942;48.936;8.260;2023-04-25T01:23:04;21.60;54.70
59162;DHT22;44942;48.936;8.260;2023-04-25T01:28:05;21.60;54.70
59162;DHT22;44942;48.936;8.260;2023-04-25T01:33:07;21.60;54.80
59162;DHT22;44942;48.936;8.260;2023-04-25T01:38:08;21.60;54.90
59162;DHT22;44942;48.936;8.260;2023-04-25T01:43:09;21.60;54.80
59162;DHT22;44942;48.936;8.260;2023-04-25T01:48:13;21.60;54.90
59162;DHT22;44942;48.936;8.260;2023-04-25T01:53:14;21.60;54.90
59162;DHT22;44942;48.936;8.260;2023-04-25T01:58:15;21.60;54.80
59162;DHT22;44942;48.936;8.260;2023-04-25T02:03:16;21.50;54.30
59162;DHT22;44942;48.936;8.260;2023-04-25T02:08:17;21.40;54.00
59162;DHT22;44942;48.936;8.260;2023-04-25T02:13:17;21.50;54.00
59162;DHT22;44942;48.936;8.260;2023-04-25T02:18:18;21.50;54.10
59162;DHT22;44942;48.936;8.260;2023-04-25T02:23:18;21.50;54.10
59162;DHT22;44942;48.936;8.260;2023-04-25T02:28:19;21.50;54.20
59162;DHT22;44942;48.936;8.260;2023-04-25T02:33:20;21.50;54.30
59162;DHT22;44942;48.936;8.260;2023-04-25T02:38:21;21.50;54.50
59162;DHT22;44942;48.936;8.260;2023-04-25T02:43:21;21.50;54.50
59162;DHT22;44942;48.936;8.260;2023-04-25T02:48:22;21.50;54.60
59162;DHT22;44942;48.936;8.260;2023-04-25T02:53:23;21.50;54.70
59162;DHT22;44942;48.936;8.260;2023-04-25T02:58:23;21.50;54.70
59162;DHT22;44942;48.936;8.260;2023-04-25T03:03:24;21.30;54.40
59162;DHT22;44942;48.936;8.260;2023-04-25T03:08:25;21.40;54.20
59162;DHT22;44942;48.936;8.260;2023-04-25T03:13:27;21.40;54.20
59162;DHT22;44942;48.936;8.260;2023-04-25T03:18:29;21.40;54.20
59162;DHT22;44942;48.936;8.260;2023-04-25T03:23:30;21.40;54.40
59162;DHT22;44942;48.936;8.260;2023-04-25T03:28:30;21.50;54.60
59162;DHT22;44942;48.936;8.260;2023-04-25T03:33:31;21.50;54.60
59162;DHT22;44942;48.936;8.260;2023-04-25T03:38:32;21.40;54.60
59162;DHT22;44942;48.936;8.260;2023-04-25T03:43:32;21.40;54.70
59162;DHT22;44942;48.936;8.260;2023-04-25T03:48:33;21.40;54.70
59162;DHT22;44942;48.936;8.260;2023-04-25T03:53:33;21.50;54.80
59162;DHT22;44942;48.936;8.260;2023-04-25T03:58:34;21.40;54.60
59162;DHT22;44942;48.936;8.260;2023-04-25T04:03:35;21.30;54.20
59162;DHT22;44942;48.936;8.260;2023-04-25T04:08:36;21.10;53.60
59162;DHT22;44942;48.936;8.260;2023-04-25T04:13:37;21.00;53.20
59162;DHT22;44942;48.936;8.260;2023-04-25T04:18:37;21.00;53.00
59162;DHT22;44942;48.936;8.260;2023-04-25T04:23:38;21.00;52.90
59162;DHT22;44942;48.936;8.260;2023-04-25T04:28:38;21.10;53.00
59162;DHT22;44942;48.936;8.260;2023-04-25T04:33:39;21.10;53.10
59162;DHT22;44942;48.936;8.260;2023-04-25T04:38:40;21.20;53.20
59162;DHT22;44942;48.936;8.260;2023-04-25T04:43:41;21.20;53.20
59162;DHT22;44942;48.936;8.260;2023-04-25T04:48:42;21.20;53.30
59162;DHT22;44942;48.936;8.260;2023-04-25T04:53:43;21.20;53.30
59162;DHT22;44942;48.936;8.260;2023-04-25T04:58:45;21.20;53.50
59162;DHT22;44942;48.936;8.260;2023-04-25T05:03:45;21.30;53.50
59162;DHT22;44942;48.936;8.260;2023-04-25T05:08:46;21.30;53.50
59162;DHT22;44942;48.936;8.260;2023-04-25T05:13:47;21.30;53.60
59162;DHT22;44942;48.936;8.260;2023-04-25T05:18:47;21.30;53.60
59162;DHT22;44942;48.936;8.260;2023-04-25T05:23:48;21.30;53.60
59162;DHT22;44942;48.936;8.260;2023-04-25T05:28:48;21.30;53.70
59162;DHT22;44942;48.936;8.260;2023-04-25T05:33:51;21.30;53.80
59162;DHT22;44942;48.936;8.260;2023-04-25T05:38:52;21.30;53.80
59162;DHT22;44942;48.936;8.260;2023-04-25T05:43:52;21.30;53.80
59162;DHT22;44942;48.936;8.260;2023-04-25T05:48:53;21.30;53.80
59162;DHT22;44942;48.936;8.260;2023-04-25T05:53:53;21.30;53.80
59162;DHT22;44942;48.936;8.260;2023-04-25T05:58:54;21.30;53.40
59162;DHT22;44942;48.936;8.260;2023-04-25T06:03:55;21.00;51.30
59162;DHT22;44942;48.936;8.260;2023-04-25T06:08:55;20.60;50.40
59162;DHT22;44942;48.936;8.260;2023-04-25T06:13:56;20.60;50.70
59162;DHT22;44942;48.936;8.260;2023-04-25T06:18:57;20.70;51.00
59162;DHT22;44942;48.936;8.260;2023-04-25T06:23:57;20.70;51.10
59162;DHT22;44942;48.936;8.260;2023-04-25T06:28:58;20.70;51.10
59162;DHT22;44942;48.936;8.260;2023-04-25T06:33:58;20.70;51.20
59162;DHT22;44942;48.936;8.260;2023-04-25T06:38:59;20.70;51.20
59162;DHT22;44942;48.936;8.260;2023-04-25T06:43:59;20.70;51.20
59162;DHT22;44942;48.936;8.260;2023-04-25T06:49:00;20.70;51.20
59162;DHT22;44942;48.936;8.260;2023-04-25T06:54:00;20.70;51.30
59162;DHT22;44942;48.936;8.260;2023-04-25T06:59:01;20.70;51.20
59162;DHT22;44942;48.936;8.260;2023-04-25T07:04:02;20.70;51.20
59162;DHT22;44942;48.936;8.260;2023-04-25T07:09:02;20.60;51.20
59162;DHT22;44942;48.936;8.260;2023-04-25T07:14:03;20.60;51.20
59162;DHT22;44942;48.936;8.260;2023-04-25T07:19:04;20.60;51.10
59162;DHT22;44942;48.936;8.260;2023-04-25T07:24:05;20.60;51.20
59162;DHT22;44942;48.936;8.260;2023-04-25T07:29:05;20.60;51.20
59162;DHT22;44942;48.936;8.260;2023-04-25T07:34:06;20.60;51.20
59162;DHT22;44942;48.936;8.260;2023-04-25T07:39:07;20.60;51.20
59162;DHT22;44942;48.936;8.260;2023-04-25T07:44:09;20.50;51.30
59162;DHT22;44942;48.936;8.260;2023-04-25T07:49:10;20.50;51.20
59162;DHT22;44942;48.936;8.260;2023-04-25T07:54:14;20.50;51.20
59162;DHT22;44942;48.936;8.260;2023-04-25T07:59:15;20.50;51.20
59162;DHT22;44942;48.936;8.260;2023-04-25T08:04:16;20.40;51.20
59162;DHT22;44942;48.936;8.260;2023-04-25T08:09:17;20.40;51.20
59162;DHT22;44942;48.936;8.260;2023-04-25T08:14:17;20.40;51.20
59162;DHT22;44942;48.936;8.260;2023-04-25T08:19:18;20.40;51.30
59162;DHT22;44942;48.936;8.260;2023-04-25T08:24:18;20.40;51.30
59162;DHT22;44942;48.936;8.260;2023-04-25T08:29:19;20.40;51.40
59162;DHT22;44942;48.936;8.260;2023-04-25T08:34:23;20.40;51.40
59162;DHT22;44942;48.936;8.260;2023-04-25T08:39:23;20.40;51.40
59162;DHT22;44942;48.936;8.260;2023-04-25T08:44:24;20.40;51.40
59162;DHT22;44942;48.936;8.260;2023-04-25T08:49:25;20.30;51.40
59162;DHT22;44942;48.936;8.260;2023-04-25T08:54:27;20.30;51.40
59162;DHT22;44942;48.936;8.260;2023-04-25T08:59:29;20.30;51.50
59162;DHT22;44942;48.936;8.260;2023-04-25T09:04:31;20.30;51.50
59162;DHT22;44942;48.936;8.260;2023-04-25T09:09:32;20.30;51.50
59162;DHT22;44942;48.936;8.260;2023-04-25T09:14:32;20.30;51.50
59162;DHT22;44942;48.936;8.260;2023-04-25T09:19:34;20.30;51.60
59162;DHT22;44942;48.936;8.260;2023-04-25T09:24:45;20.30;51.50
59162;DHT22;44942;48.936;8.260;2023-04-25T09:29:58;20.30;51.60
59162;DHT22;44942;48.936;8.260;2023-04-25T09:35:02;20.30;51.60
59162;DHT22;44942;48.936;8.260;2023-04-25T09:40:04;20.30;51.70
59162;DHT22;44942;48.936;8.260;2023-04-25T09:45:06;20.30;51.70
59162;DHT22;44942;48.936;8.260;2023-04-25T09:50:15;20.30;51.70
59162;DHT22;44942;48.936;8.260;2023-04-25T09:55:16;20.30;51.70
59162;DHT22;44942;48.936;8.260;2023-04-25T10:00:17;20.30;51.80
59162;DHT22;44942;48.936;8.260;2023-04-25T10:05:18;20.20;51.70
59162;DHT22;44942;48.936;8.260;2023-04-25T10:10:19;20.20;51.60
59162;DHT22;44942;48.936;8.260;2023-04-25T10:15:23;20.20;51.60
59162;DHT22;44942;48.936;8.260;2023-04-25T10:20:25;20.20;51.60
59162;DHT22;44942;48.936;8.260;2023-04-25T10:25:26;20.20;51.60
59162;DHT22;44942;48.936;8.260;2023-04-25T10:30:26;20.20;51.50
59162;DHT22;44942;48.936;8.260;2023-04-25T10:35:28;20.20;51.50
59162;DHT22;44942;48.936;8.260;2023-04-25T10:40:29;20.20;51.40
59162;DHT22;44942;48.936;8.260;2023-04-25T10:45:30;20.20;51.30
59162;DHT22;44942;48.936;8.260;2023-04-25T10:51:09;20.20;51.30
59162;DHT22;44942;48.936;8.260;2023-04-25T10:56:17;20.10;51.20
59162;DHT22;44942;48.936;8.260;2023-04-25T11:01:24;20.10;51.30
59162;DHT22;44942;48.936;8.260;2023-04-25T11:11:54;20.10;51.30
59162;DHT22;44942;48.936;8.260;2023-04-25T11:16:56;20.10;51.30
59162;DHT22;44942;48.936;8.260;2023-04-25T11:21:58;20.10;51.30
59162;DHT22;44942;48.936;8.260;2023-04-25T11:27:00;20.10;51.30
59162;DHT22;44942;48.936;8.260;2023-04-25T11:32:02;20.00;51.20
59162;DHT22;44942;48.936;8.260;2023-04-25T11:37:03;20.00;51.20
59162;DHT22;44942;48.936;8.260;2023-04-25T11:42:04;20.00;51.20
59162;DHT22;44942;48.936;8.260;2023-04-25T11:47:06;20.00;51.90
59162;DHT22;44942;48.936;8.260;2023-04-25T11:52:07;20.00;51.20
59162;DHT22;44942;48.936;8.260;2023-04-25T11:57:07;20.00;51.20
59162;DHT22;44942;48.936;8.260;2023-04-25T12:02:08;20.00;51.30
59162;DHT22;44942;48.936;8.260;2023-04-25T12:07:09;20.00;51.30
59162;DHT22;44942;48.936;8.260;2023-04-25T12:12:10;20.00;51.30
59162;DHT22;44942;48.936;8.260;2023-04-25T12:17:11;20.00;51.30
59162;DHT22;44942;48.936;8.260;2023-04-25T12:22:23;20.00;51.40
59162;DHT22;44942;48.936;8.260;2023-04-25T12:27:25;19.90;51.30
59162;DHT22;44942;48.936;8.260;2023-04-25T20:59:49;18.00;57.50
59162;DHT22;44942;48.936;8.260;2023-04-25T21:04:49;18.30;58.60
59162;DHT22;44942;48.936;8.260;2023-04-25T21:09:51;18.80;57.80
59162;DHT22;44942;48.936;8.260;2023-04-25T21:14:51;19.20;57.10
59162;DHT22;44942;48.936;8.260;2023-04-25T21:19:52;19.40;56.70
59162;DHT22;44942;48.936;8.260;2023-04-25T21:24:55;19.50;56.10
59162;DHT22;44942;48.936;8.260;2023-04-25T21:29:56;19.70;55.80
59162;DHT22;44942;48.936;8.260;2023-04-25T21:34:57;19.70;55.60
59162;DHT22;44942;48.936;8.260;2023-04-25T21:39:57;19.80;55.40
59162;DHT22;44942;48.936;8.260;2023-04-25T21:44:58;19.80;55.20
59162;DHT22;44942;48.936;8.260;2023-04-25T21:49:59;19.90;55.10
59162;DHT22;44942;48.936;8.260;2023-04-25T21:54:59;19.90;55.00
59162;DHT22;44942;48.936;8.260;2023-04-25T22:00:00;20.00;55.00
59162;DHT22;44942;48.936;8.260;2023-04-25T22:05:01;20.00;54.80
59162;DHT22;44942;48.936;8.260;2023-04-25T22:10:02;20.00;54.70
59162;DHT22;44942;48.936;8.260;2023-04-25T22:15:02;20.00;54.60
59162;DHT22;44942;48.936;8.260;2023-04-25T22:20:03;20.10;54.70
59162;DHT22;44942;48.936;8.260;2023-04-25T22:25:09;20.10;54.70
59162;DHT22;44942;48.936;8.260;2023-04-25T22:30:11;20.10;54.70
59162;DHT22;44942;48.936;8.260;2023-04-25T22:35:12;20.10;54.70
59162;DHT22;44942;48.936;8.260;2023-04-25T22:40:13;20.10;54.70
59162;DHT22;44942;48.936;8.260;2023-04-25T22:45:14;20.20;54.70
59162;DHT22;44942;48.936;8.260;2023-04-25T22:50:15;20.20;54.70
59162;DHT22;44942;48.936;8.260;2023-04-25T22:55:17;20.20;54.70
59162;DHT22;44942;48.936;8.260;2023-04-25T23:00:17;20.20;54.70
59162;DHT22;44942;48.936;8.260;2023-04-25T23:05:21;20.20;54.70
59162;DHT22;44942;48.936;8.260;2023-04-25T23:10:23;20.20;54.70
59162;DHT22;44942;48.936;8.260;2023-04-25T23:15:27;20.20;54.80
59162;DHT22;44942;48.936;8.260;2023-04-25T23:20:30;20.20;54.80
59162;DHT22;44942;48.936;8.260;2023-04-25T23:25:31;20.30;54.90
59162;DHT22;44942;48.936;8.260;2023-04-25T23:30:32;20.30;54.90
59162;DHT22;44942;48.936;8.260;2023-04-25T23:35:34;20.30;54.90
59162;DHT22;44942;48.936;8.260;2023-04-25T23:40:36;20.30;55.00
59162;DHT22;44942;48.936;8.260;2023-04-25T23:45:36;20.30;55.10
59162;DHT22;44942;48.936;8.260;2023-04-25T23:50:37;20.30;55.10
59162;DHT22;44942;48.936;8.260;2023-04-25T23:55:38;20.30;55.10
